METAR AND TAF INFORMATION
METAR FOR LGKL
ADDS - METARS form results

(0326 UTC 26 February 2020)
Data provider http://aviationweather.gov/metar/data/
 
METAR text: LGKL 260320Z 34004KT 5000 BR NSC 06/06 Q1015
Conditions at: LGKL (KALAMATA (HEL-AF, GR) observed 0320 UTC 26 February 2020
Temperature: 6.0°C (43°F)
Dewpoint: 6.0°C (43°F) [RH = 100%]
Pressure (altimeter): 29.97 inches Hg (1015.0 mb)
Winds: from the NNW (340 degrees) at 5 MPH (4 knots; 2.1 m/s)
Visibility: 3 miles ( 5 km)
Ceiling: at least 12,000 feet AGL
Clouds: sky clear below 12,000 feet AGL
Weather: BR  (mist)

METAR text: LGKL 260250Z 30004KT 6000 NSC 05/05 Q1015
Conditions at: LGKL (KALAMATA (HEL-AF, GR) observed 0250 UTC 26 February 2020
Temperature: 5.0°C (41°F)
Dewpoint: 5.0°C (41°F) [RH = 100%]
Pressure (altimeter): 29.97 inches Hg (1015.0 mb)
Winds: from the WNW (300 degrees) at 5 MPH (4 knots; 2.1 m/s)
Visibility: 4 miles ( 6 km)
Ceiling: at least 12,000 feet AGL
Clouds: sky clear below 12,000 feet AGL
Weather: no significant weather observed at this time

Forecast for: LGKL (KALAMATA (HEL-AF, GR)
Text: TAF LGKL 260200Z 2603/2612 VRB03KT 8000 FEW018 BKN025
Forecast period: 0300 to 1200 UTC 26 February 2020
Forecast type: FROM: standard forecast or significant change
Winds: variable direction winds at 3 MPH (3 knots; 1.5 m/s)
Visibility: 5 miles (8 km)
Ceiling: 2500 feet AGL
Clouds: few clouds at 1800 feet AGL
broken clouds at 2500 feet AGL
Weather: no significant weather forecast for this period
Text: TEMPO 2604/2608 4000 BR SCT010 BKN020
Forecast period: 0400 to 0800 UTC 26 February 2020
Forecast type: TEMPORARY: The following changes expected for less than half the time period
Visibility: 2.49 miles (4.01 km)
Ceiling: 2000 feet AGL
Clouds: scattered clouds at 1000 feet AGL
broken clouds at 2000 feet AGL
Weather: BR  (mist)

 AIRPORT MAP

 RUNWAY INFORMATION
Runway 17R Runway length 9260 ft Runway width 148 ft
Runway elevation 26 ft Runway displaced threshold 240 ft Runway heading 169
Runway 35L Runway length 9260 ft Runway width 148 ft
Runway elevation 16 ft Runway displaced threshold 250 ft Runway heading 349

 AIRPORT FREQUENCIES
Type A/G Name RDO Frequency 563.7 MHZ
Type APP Name APP Frequency 120.75 MHZ
Type TWR Name TWR Frequency 120.75 MHZ

 AIRPORT NEAR NAVIGATION AIDS
Type VOR-DME Name Kalamata Frequency 112600 KHZ
Type TACAN Name Kalamata Frequency 115200 KHZ
Type NDB Name Kalamata Frequency 348 KHZ



Powered by Virtual Airlines Manager [v2.6.2]